sensor_id;sensor_type;location;lat;lon;timestamp;P1;durP1;ratioP1;P2;durP2;ratioP2
25984;SDS011;66753;53.848;10.658;2023-02-01T00:04:37;7.20;;;1.27;;
25984;SDS011;66753;53.848;10.658;2023-02-01T00:09:37;10.38;;;1.67;;
25984;SDS011;66753;53.848;10.658;2023-02-01T00:14:38;13.02;;;1.95;;
25984;SDS011;66753;53.848;10.658;2023-02-01T00:19:39;11.57;;;1.15;;
25984;SDS011;66753;53.848;10.658;2023-02-01T00:24:40;11.40;;;1.20;;
25984;SDS011;66753;53.848;10.658;2023-02-01T00:29:40;5.20;;;1.45;;
25984;SDS011;66753;53.848;10.658;2023-02-01T00:34:41;10.57;;;1.50;;
25984;SDS011;66753;53.848;10.658;2023-02-01T00:39:44;11.77;;;1.40;;
25984;SDS011;66753;53.848;10.658;2023-02-01T00:44:47;13.05;;;1.75;;
25984;SDS011;66753;53.848;10.658;2023-02-01T00:49:48;12.80;;;1.60;;
25984;SDS011;66753;53.848;10.658;2023-02-01T00:54:48;6.53;;;1.10;;
25984;SDS011;66753;53.848;10.658;2023-02-01T00:59:49;11.87;;;1.70;;
25984;SDS011;66753;53.848;10.658;2023-02-01T01:04:49;9.80;;;1.57;;
25984;SDS011;66753;53.848;10.658;2023-02-01T01:09:50;10.48;;;1.65;;
25984;SDS011;66753;53.848;10.658;2023-02-01T01:14:53;11.68;;;2.20;;
25984;SDS011;66753;53.848;10.658;2023-02-01T01:19:54;10.13;;;1.77;;
25984;SDS011;66753;53.848;10.658;2023-02-01T01:24:54;10.67;;;2.67;;
25984;SDS011;66753;53.848;10.658;2023-02-01T01:29:54;12.38;;;2.40;;
25984;SDS011;66753;53.848;10.658;2023-02-01T01:34:58;11.57;;;1.83;;
25984;SDS011;66753;53.848;10.658;2023-02-01T01:39:58;10.88;;;1.67;;
25984;SDS011;66753;53.848;10.658;2023-02-01T01:45:00;13.50;;;1.73;;
25984;SDS011;66753;53.848;10.658;2023-02-01T01:50:08;12.65;;;1.95;;
25984;SDS011;66753;53.848;10.658;2023-02-01T01:55:12;13.23;;;2.30;;
25984;SDS011;66753;53.848;10.658;2023-02-01T02:00:15;12.82;;;2.17;;
25984;SDS011;66753;53.848;10.658;2023-02-01T02:05:17;11.70;;;2.05;;
25984;SDS011;66753;53.848;10.658;2023-02-01T02:10:19;11.65;;;1.92;;
25984;SDS011;66753;53.848;10.658;2023-02-01T02:15:19;11.65;;;1.88;;
25984;SDS011;66753;53.848;10.658;2023-02-01T02:36:36;11.30;;;1.20;;
25984;SDS011;66753;53.848;10.658;2023-02-01T02:41:48;12.75;;;1.95;;
25984;SDS011;66753;53.848;10.658;2023-02-01T02:47:17;15.20;;;1.73;;
25984;SDS011;66753;53.848;10.658;2023-02-01T02:52:27;10.77;;;1.83;;
25984;SDS011;66753;53.848;10.658;2023-02-01T02:57:47;13.57;;;1.92;;
25984;SDS011;66753;53.848;10.658;2023-02-01T03:03:07;14.40;;;2.13;;
25984;SDS011;66753;53.848;10.658;2023-02-01T03:08:27;16.30;;;2.33;;
25984;SDS011;66753;53.848;10.658;2023-02-01T03:13:36;14.70;;;2.08;;
25984;SDS011;66753;53.848;10.658;2023-02-01T03:23:44;7.22;;;1.02;;
25984;SDS011;66753;53.848;10.658;2023-02-01T03:28:55;11.18;;;1.48;;
25984;SDS011;66753;53.848;10.658;2023-02-01T03:34:00;12.90;;;1.90;;
25984;SDS011;66753;53.848;10.658;2023-02-01T03:49:34;5.55;;;0.88;;
25984;SDS011;66753;53.848;10.658;2023-02-01T03:54:37;7.85;;;0.73;;
25984;SDS011;66753;53.848;10.658;2023-02-01T03:59:39;8.13;;;1.10;;
25984;SDS011;66753;53.848;10.658;2023-02-01T04:04:40;9.13;;;1.15;;
25984;SDS011;66753;53.848;10.658;2023-02-01T04:09:41;8.17;;;1.57;;
25984;SDS011;66753;53.848;10.658;2023-02-01T04:14:42;8.38;;;1.23;;
25984;SDS011;66753;53.848;10.658;2023-02-01T04:19:42;9.30;;;1.53;;
25984;SDS011;66753;53.848;10.658;2023-02-01T04:24:42;4.07;;;0.47;;
25984;SDS011;66753;53.848;10.658;2023-02-01T04:29:43;2.40;;;0.40;;
25984;SDS011;66753;53.848;10.658;2023-02-01T04:34:45;2.40;;;0.30;;
25984;SDS011;66753;53.848;10.658;2023-02-01T04:39:45;3.35;;;0.30;;
25984;SDS011;66753;53.848;10.658;2023-02-01T04:44:46;3.57;;;0.40;;
25984;SDS011;66753;53.848;10.658;2023-02-01T04:49:46;1.60;;;0.20;;
25984;SDS011;66753;53.848;10.658;2023-02-01T04:54:47;2.40;;;0.50;;
25984;SDS011;66753;53.848;10.658;2023-02-01T04:59:47;0.93;;;0.20;;
25984;SDS011;66753;53.848;10.658;2023-02-01T05:04:47;1.47;;;0.30;;
25984;SDS011;66753;53.848;10.658;2023-02-01T05:09:48;4.05;;;0.45;;
25984;SDS011;66753;53.848;10.658;2023-02-01T05:14:49;4.47;;;0.80;;
25984;SDS011;66753;53.848;10.658;2023-02-01T05:19:49;3.27;;;0.70;;
25984;SDS011;66753;53.848;10.658;2023-02-01T05:24:49;3.53;;;0.50;;
25984;SDS011;66753;53.848;10.658;2023-02-01T05:29:50;3.47;;;0.70;;
25984;SDS011;66753;53.848;10.658;2023-02-01T05:34:54;4.05;;;0.70;;
25984;SDS011;66753;53.848;10.658;2023-02-01T05:39:55;5.37;;;0.90;;
25984;SDS011;66753;53.848;10.658;2023-02-01T05:44:55;3.50;;;0.60;;
25984;SDS011;66753;53.848;10.658;2023-02-01T05:49:55;3.10;;;0.37;;
25984;SDS011;66753;53.848;10.658;2023-02-01T05:54:56;6.30;;;0.70;;
25984;SDS011;66753;53.848;10.658;2023-02-01T05:59:56;4.40;;;0.50;;
25984;SDS011;66753;53.848;10.658;2023-02-01T06:04:57;3.53;;;0.43;;
25984;SDS011;66753;53.848;10.658;2023-02-01T06:10:00;3.70;;;0.50;;
25984;SDS011;66753;53.848;10.658;2023-02-01T06:15:01;5.25;;;0.70;;
25984;SDS011;66753;53.848;10.658;2023-02-01T06:20:01;1.63;;;0.23;;
25984;SDS011;66753;53.848;10.658;2023-02-01T06:25:07;5.60;;;0.60;;
25984;SDS011;66753;53.848;10.658;2023-02-01T06:30:12;2.75;;;0.20;;
25984;SDS011;66753;53.848;10.658;2023-02-01T06:35:15;3.03;;;0.30;;
25984;SDS011;66753;53.848;10.658;2023-02-01T06:40:16;0.50;;;0.20;;
25984;SDS011;66753;53.848;10.658;2023-02-01T06:45:17;2.33;;;0.40;;
25984;SDS011;66753;53.848;10.658;2023-02-01T06:50:17;3.77;;;0.40;;
25984;SDS011;66753;53.848;10.658;2023-02-01T06:55:17;2.23;;;0.20;;
25984;SDS011;66753;53.848;10.658;2023-02-01T07:00:18;0.53;;;0.10;;
25984;SDS011;66753;53.848;10.658;2023-02-01T07:05:19;2.45;;;0.60;;
25984;SDS011;66753;53.848;10.658;2023-02-01T07:10:19;2.85;;;0.38;;
25984;SDS011;66753;53.848;10.658;2023-02-01T07:15:20;2.73;;;0.50;;
25984;SDS011;66753;53.848;10.658;2023-02-01T07:20:20;2.20;;;0.40;;
25984;SDS011;66753;53.848;10.658;2023-02-01T07:25:21;1.88;;;0.30;;
25984;SDS011;66753;53.848;10.658;2023-02-01T07:30:22;3.67;;;0.40;;
25984;SDS011;66753;53.848;10.658;2023-02-01T07:35:26;6.47;;;0.98;;
25984;SDS011;66753;53.848;10.658;2023-02-01T07:40:28;3.65;;;0.70;;
25984;SDS011;66753;53.848;10.658;2023-02-01T07:45:29;3.67;;;0.70;;
25984;SDS011;66753;53.848;10.658;2023-02-01T07:50:30;6.85;;;0.93;;
25984;SDS011;66753;53.848;10.658;2023-02-01T07:55:30;2.40;;;0.75;;
25984;SDS011;66753;53.848;10.658;2023-02-01T08:00:31;2.80;;;0.40;;
25984;SDS011;66753;53.848;10.658;2023-02-01T08:05:53;5.95;;;0.90;;
25984;SDS011;66753;53.848;10.658;2023-02-01T08:10:59;5.72;;;1.13;;
25984;SDS011;66753;53.848;10.658;2023-02-01T08:16:01;4.97;;;1.15;;
25984;SDS011;66753;53.848;10.658;2023-02-01T08:26:20;5.90;;;1.20;;
25984;SDS011;66753;53.848;10.658;2023-02-01T08:31:22;8.80;;;1.58;;
25984;SDS011;66753;53.848;10.658;2023-02-01T08:36:24;12.23;;;1.83;;
25984;SDS011;66753;53.848;10.658;2023-02-01T08:41:27;14.23;;;1.30;;
25984;SDS011;66753;53.848;10.658;2023-02-01T08:46:29;11.38;;;1.50;;
25984;SDS011;66753;53.848;10.658;2023-02-01T08:51:30;12.20;;;1.40;;
25984;SDS011;66753;53.848;10.658;2023-02-01T08:56:30;7.50;;;0.97;;
25984;SDS011;66753;53.848;10.658;2023-02-01T09:01:30;8.67;;;1.20;;
25984;SDS011;66753;53.848;10.658;2023-02-01T09:06:32;10.30;;;1.57;;
25984;SDS011;66753;53.848;10.658;2023-02-01T09:11:32;10.30;;;1.58;;
25984;SDS011;66753;53.848;10.658;2023-02-01T09:16:33;13.57;;;1.13;;
25984;SDS011;66753;53.848;10.658;2023-02-01T09:21:33;15.10;;;1.67;;
25984;SDS011;66753;53.848;10.658;2023-02-01T09:26:34;7.82;;;1.33;;
25984;SDS011;66753;53.848;10.658;2023-02-01T09:31:36;4.30;;;1.05;;
25984;SDS011;66753;53.848;10.658;2023-02-01T09:36:37;7.93;;;1.25;;
25984;SDS011;66753;53.848;10.658;2023-02-01T09:46:49;3.50;;;0.60;;
25984;SDS011;66753;53.848;10.658;2023-02-01T09:51:56;5.95;;;0.80;;
25984;SDS011;66753;53.848;10.658;2023-02-01T09:57:06;3.47;;;0.63;;
25984;SDS011;66753;53.848;10.658;2023-02-01T10:02:18;6.85;;;1.30;;
25984;SDS011;66753;53.848;10.658;2023-02-01T10:07:31;6.00;;;1.20;;
25984;SDS011;66753;53.848;10.658;2023-02-01T10:28:28;8.63;;;1.50;;
25984;SDS011;66753;53.848;10.658;2023-02-01T10:33:35;8.63;;;1.38;;
25984;SDS011;66753;53.848;10.658;2023-02-01T10:39:03;7.63;;;1.02;;
25984;SDS011;66753;53.848;10.658;2023-02-01T10:44:16;7.60;;;1.77;;
25984;SDS011;66753;53.848;10.658;2023-02-01T10:49:29;9.00;;;1.15;;
25984;SDS011;66753;53.848;10.658;2023-02-01T11:00:28;9.65;;;1.23;;
25984;SDS011;66753;53.848;10.658;2023-02-01T11:05:45;10.70;;;1.65;;
25984;SDS011;66753;53.848;10.658;2023-02-01T11:10:46;13.65;;;1.63;;
25984;SDS011;66753;53.848;10.658;2023-02-01T11:15:54;7.03;;;1.00;;
25984;SDS011;66753;53.848;10.658;2023-02-01T11:20:56;10.18;;;1.15;;
25984;SDS011;66753;53.848;10.658;2023-02-01T11:26:40;5.32;;;1.00;;
25984;SDS011;66753;53.848;10.658;2023-02-01T11:31:26;4.07;;;0.88;;
25984;SDS011;66753;53.848;10.658;2023-02-01T11:36:29;5.10;;;0.50;;
25984;SDS011;66753;53.848;10.658;2023-02-01T11:41:35;8.38;;;0.80;;
25984;SDS011;66753;53.848;10.658;2023-02-01T11:46:56;4.50;;;1.02;;
25984;SDS011;66753;53.848;10.658;2023-02-01T11:52:40;3.58;;;0.70;;
25984;SDS011;66753;53.848;10.658;2023-02-01T12:14:05;8.65;;;1.95;;
25984;SDS011;66753;53.848;10.658;2023-02-01T12:35:20;4.35;;;1.00;;
25984;SDS011;66753;53.848;10.658;2023-02-01T12:40:40;5.20;;;0.77;;
25984;SDS011;66753;53.848;10.658;2023-02-01T12:46:07;2.88;;;0.40;;
25984;SDS011;66753;53.848;10.658;2023-02-01T12:51:15;4.65;;;0.90;;
25984;SDS011;66753;53.848;10.658;2023-02-01T12:56:31;1.92;;;0.43;;
25984;SDS011;66753;53.848;10.658;2023-02-01T13:01:39;2.08;;;0.73;;
25984;SDS011;66753;53.848;10.658;2023-02-01T13:06:49;2.58;;;0.35;;
25984;SDS011;66753;53.848;10.658;2023-02-01T13:12:00;3.63;;;0.68;;
25984;SDS011;66753;53.848;10.658;2023-02-01T13:17:11;2.72;;;0.70;;
25984;SDS011;66753;53.848;10.658;2023-02-01T13:22:31;3.33;;;0.60;;
25984;SDS011;66753;53.848;10.658;2023-02-01T13:27:35;4.10;;;0.40;;
25984;SDS011;66753;53.848;10.658;2023-02-01T13:48:20;0.30;;;0.10;;
25984;SDS011;66753;53.848;10.658;2023-02-01T13:53:32;0.38;;;0.10;;
25984;SDS011;66753;53.848;10.658;2023-02-01T13:58:40;0.45;;;0.10;;
25984;SDS011;66753;53.848;10.658;2023-02-01T14:03:43;1.45;;;0.20;;
25984;SDS011;66753;53.848;10.658;2023-02-01T14:08:45;0.75;;;0.20;;
25984;SDS011;66753;53.848;10.658;2023-02-01T14:13:49;0.65;;;0.10;;
25984;SDS011;66753;53.848;10.658;2023-02-01T14:18:56;0.93;;;0.08;;
25984;SDS011;66753;53.848;10.658;2023-02-01T14:29:34;1.67;;;0.28;;
25984;SDS011;66753;53.848;10.658;2023-02-01T14:39:57;2.22;;;0.40;;
25984;SDS011;66753;53.848;10.658;2023-02-01T14:50:21;6.70;;;0.57;;
25984;SDS011;66753;53.848;10.658;2023-02-01T15:00:46;4.25;;;0.82;;
25984;SDS011;66753;53.848;10.658;2023-02-01T15:05:55;5.88;;;0.80;;
25984;SDS011;66753;53.848;10.658;2023-02-01T15:10:58;3.70;;;0.40;;
25984;SDS011;66753;53.848;10.658;2023-02-01T15:16:15;5.03;;;0.68;;
25984;SDS011;66753;53.848;10.658;2023-02-01T15:21:21;3.95;;;0.68;;
25984;SDS011;66753;53.848;10.658;2023-02-01T15:26:29;7.95;;;1.15;;
25984;SDS011;66753;53.848;10.658;2023-02-01T15:31:32;3.63;;;1.00;;
25984;SDS011;66753;53.848;10.658;2023-02-01T15:36:35;5.63;;;0.93;;
25984;SDS011;66753;53.848;10.658;2023-02-01T15:41:37;10.38;;;1.58;;
25984;SDS011;66753;53.848;10.658;2023-02-01T15:46:39;6.15;;;1.08;;
25984;SDS011;66753;53.848;10.658;2023-02-01T15:51:43;7.95;;;1.00;;
25984;SDS011;66753;53.848;10.658;2023-02-01T15:56:51;5.97;;;1.13;;
25984;SDS011;66753;53.848;10.658;2023-02-01T16:01:53;5.38;;;1.35;;
25984;SDS011;66753;53.848;10.658;2023-02-01T16:06:54;9.32;;;1.48;;
25984;SDS011;66753;53.848;10.658;2023-02-01T16:11:57;7.10;;;1.20;;
25984;SDS011;66753;53.848;10.658;2023-02-01T16:21:59;9.63;;;1.15;;
25984;SDS011;66753;53.848;10.658;2023-02-01T16:27:00;6.57;;;1.13;;
25984;SDS011;66753;53.848;10.658;2023-02-01T16:32:00;10.73;;;1.53;;
25984;SDS011;66753;53.848;10.658;2023-02-01T16:37:01;11.30;;;1.75;;
25984;SDS011;66753;53.848;10.658;2023-02-01T16:42:08;9.88;;;1.60;;
25984;SDS011;66753;53.848;10.658;2023-02-01T16:47:12;10.18;;;1.42;;
25984;SDS011;66753;53.848;10.658;2023-02-01T16:52:21;11.38;;;1.48;;
25984;SDS011;66753;53.848;10.658;2023-02-01T16:57:24;8.70;;;1.73;;
25984;SDS011;66753;53.848;10.658;2023-02-01T17:02:25;5.30;;;1.40;;
25984;SDS011;66753;53.848;10.658;2023-02-01T17:07:26;9.75;;;2.40;;
25984;SDS011;66753;53.848;10.658;2023-02-01T17:12:28;10.73;;;1.92;;
25984;SDS011;66753;53.848;10.658;2023-02-01T17:17:32;13.70;;;1.85;;
25984;SDS011;66753;53.848;10.658;2023-02-01T17:22:36;11.05;;;1.60;;
25984;SDS011;66753;53.848;10.658;2023-02-01T17:27:36;12.83;;;1.37;;
25984;SDS011;66753;53.848;10.658;2023-02-01T17:32:37;11.20;;;2.13;;
25984;SDS011;66753;53.848;10.658;2023-02-01T17:37:41;15.68;;;2.17;;
25984;SDS011;66753;53.848;10.658;2023-02-01T17:42:41;20.77;;;3.40;;
25984;SDS011;66753;53.848;10.658;2023-02-01T17:47:42;12.60;;;2.13;;
25984;SDS011;66753;53.848;10.658;2023-02-01T17:52:46;10.95;;;1.80;;
25984;SDS011;66753;53.848;10.658;2023-02-01T17:57:47;8.23;;;2.20;;
25984;SDS011;66753;53.848;10.658;2023-02-01T18:02:48;13.35;;;2.42;;
25984;SDS011;66753;53.848;10.658;2023-02-01T18:07:48;16.47;;;2.43;;
25984;SDS011;66753;53.848;10.658;2023-02-01T18:12:49;8.05;;;1.73;;
25984;SDS011;66753;53.848;10.658;2023-02-01T18:17:49;11.93;;;1.88;;
25984;SDS011;66753;53.848;10.658;2023-02-01T18:22:50;11.85;;;2.28;;
25984;SDS011;66753;53.848;10.658;2023-02-01T18:27:52;13.68;;;1.77;;
25984;SDS011;66753;53.848;10.658;2023-02-01T18:32:57;15.27;;;2.63;;
25984;SDS011;66753;53.848;10.658;2023-02-01T18:37:57;14.68;;;1.95;;
25984;SDS011;66753;53.848;10.658;2023-02-01T18:42:58;12.02;;;2.17;;
25984;SDS011;66753;53.848;10.658;2023-02-01T18:47:59;13.63;;;2.53;;
25984;SDS011;66753;53.848;10.658;2023-02-01T18:53:00;13.50;;;1.85;;
25984;SDS011;66753;53.848;10.658;2023-02-01T18:58:03;6.38;;;2.03;;
25984;SDS011;66753;53.848;10.658;2023-02-01T19:03:05;9.95;;;3.03;;
25984;SDS011;66753;53.848;10.658;2023-02-01T19:08:06;11.80;;;2.93;;
25984;SDS011;66753;53.848;10.658;2023-02-01T19:13:08;14.10;;;2.40;;
25984;SDS011;66753;53.848;10.658;2023-02-01T19:18:12;16.92;;;2.72;;
25984;SDS011;66753;53.848;10.658;2023-02-01T19:23:14;13.70;;;1.95;;
25984;SDS011;66753;53.848;10.658;2023-02-01T19:28:14;11.77;;;3.43;;
25984;SDS011;66753;53.848;10.658;2023-02-01T19:33:18;11.63;;;2.50;;
25984;SDS011;66753;53.848;10.658;2023-02-01T19:38:18;6.80;;;1.23;;
25984;SDS011;66753;53.848;10.658;2023-02-01T19:43:19;9.63;;;1.50;;
25984;SDS011;66753;53.848;10.658;2023-02-01T19:48:19;5.63;;;0.83;;
25984;SDS011;66753;53.848;10.658;2023-02-01T19:53:20;6.93;;;1.15;;
25984;SDS011;66753;53.848;10.658;2023-02-01T19:58:24;5.00;;;1.02;;
25984;SDS011;66753;53.848;10.658;2023-02-01T20:03:25;3.85;;;0.75;;
25984;SDS011;66753;53.848;10.658;2023-02-01T20:08:26;4.07;;;0.52;;
25984;SDS011;66753;53.848;10.658;2023-02-01T20:13:36;7.50;;;1.27;;
25984;SDS011;66753;53.848;10.658;2023-02-01T20:18:38;4.82;;;0.90;;
25984;SDS011;66753;53.848;10.658;2023-02-01T20:23:39;6.88;;;1.55;;
25984;SDS011;66753;53.848;10.658;2023-02-01T20:28:39;5.03;;;0.70;;
25984;SDS011;66753;53.848;10.658;2023-02-01T20:33:40;8.15;;;1.30;;
25984;SDS011;66753;53.848;10.658;2023-02-01T20:38:40;6.50;;;1.40;;
25984;SDS011;66753;53.848;10.658;2023-02-01T20:43:41;3.10;;;0.73;;
25984;SDS011;66753;53.848;10.658;2023-02-01T20:48:42;8.50;;;1.07;;
25984;SDS011;66753;53.848;10.658;2023-02-01T20:53:43;8.35;;;1.45;;
25984;SDS011;66753;53.848;10.658;2023-02-01T20:58:44;6.50;;;0.95;;
25984;SDS011;66753;53.848;10.658;2023-02-01T21:03:45;9.90;;;2.33;;
25984;SDS011;66753;53.848;10.658;2023-02-01T21:08:46;11.90;;;1.97;;
25984;SDS011;66753;53.848;10.658;2023-02-01T21:13:46;8.47;;;2.40;;
25984;SDS011;66753;53.848;10.658;2023-02-01T21:18:50;10.75;;;1.58;;
25984;SDS011;66753;53.848;10.658;2023-02-01T21:23:53;9.48;;;1.13;;
25984;SDS011;66753;53.848;10.658;2023-02-01T21:28:55;12.20;;;1.50;;
25984;SDS011;66753;53.848;10.658;2023-02-01T21:33:55;11.50;;;1.98;;
25984;SDS011;66753;53.848;10.658;2023-02-01T21:38:56;9.93;;;1.60;;
25984;SDS011;66753;53.848;10.658;2023-02-01T21:44:02;10.50;;;1.98;;
25984;SDS011;66753;53.848;10.658;2023-02-01T21:49:03;7.97;;;1.50;;
25984;SDS011;66753;53.848;10.658;2023-02-01T21:54:04;12.93;;;2.43;;
25984;SDS011;66753;53.848;10.658;2023-02-01T21:59:06;9.77;;;1.65;;
25984;SDS011;66753;53.848;10.658;2023-02-01T22:04:09;12.85;;;1.65;;
25984;SDS011;66753;53.848;10.658;2023-02-01T22:09:19;9.93;;;1.17;;
25984;SDS011;66753;53.848;10.658;2023-02-01T22:14:24;12.68;;;2.38;;
25984;SDS011;66753;53.848;10.658;2023-02-01T22:19:25;14.70;;;1.70;;
25984;SDS011;66753;53.848;10.658;2023-02-01T22:24:25;11.75;;;1.63;;
25984;SDS011;66753;53.848;10.658;2023-02-01T22:29:26;12.90;;;2.53;;
25984;SDS011;66753;53.848;10.658;2023-02-01T22:34:26;7.25;;;1.58;;
25984;SDS011;66753;53.848;10.658;2023-02-01T22:39:27;16.80;;;1.90;;
25984;SDS011;66753;53.848;10.658;2023-02-01T22:44:27;12.87;;;1.30;;
25984;SDS011;66753;53.848;10.658;2023-02-01T22:49:30;9.70;;;1.67;;
25984;SDS011;66753;53.848;10.658;2023-02-01T22:54:31;11.07;;;2.03;;
25984;SDS011;66753;53.848;10.658;2023-02-01T22:59:31;15.53;;;2.00;;
25984;SDS011;66753;53.848;10.658;2023-02-01T23:04:32;10.85;;;1.73;;
25984;SDS011;66753;53.848;10.658;2023-02-01T23:09:32;7.53;;;1.13;;
25984;SDS011;66753;53.848;10.658;2023-02-01T23:14:33;7.90;;;1.50;;
25984;SDS011;66753;53.848;10.658;2023-02-01T23:19:53;11.00;;;1.92;;
25984;SDS011;66753;53.848;10.658;2023-02-01T23:24:54;3.83;;;1.23;;
25984;SDS011;66753;53.848;10.658;2023-02-01T23:29:54;11.25;;;2.17;;
25984;SDS011;66753;53.848;10.658;2023-02-01T23:34:55;10.50;;;1.70;;
25984;SDS011;66753;53.848;10.658;2023-02-01T23:39:55;7.00;;;1.23;;
25984;SDS011;66753;53.848;10.658;2023-02-01T23:44:56;7.90;;;1.02;;
25984;SDS011;66753;53.848;10.658;2023-02-01T23:49:56;6.07;;;1.42;;
25984;SDS011;66753;53.848;10.658;2023-02-01T23:54:57;5.57;;;1.10;;
25984;SDS011;66753;53.848;10.658;2023-02-01T23:59:57;5.80;;;0.75;;
